Time;durP1;ratioP1;P1;durP2;ratioP2;P2;SDS_P1;SDS_P2;PMS_P1;PMS_P2;Temp;Humidity;BMP_temperature;BMP_pressure;BME280_temperature;BME280_humidity;BME280_pressure;Samples;Min_cycle;Max_cycle;Signal;HPM_P1;HPM_P2
2022/07/20 00:00:02;;;;;;;13.32;4.72;;;;;;;;;;4988965;28;93440;-71
2022/07/20 00:02:36;;;;;;;14.45;4.30;;;;;;;;;;4981404;28;94228;-72
2022/07/20 00:05:03;;;;;;;10.80;4.55;;;;;;;;;;4983937;28;94672;-71
2022/07/20 00:07:29;;;;;;;8.35;4.68;;;;;;;;;;4987303;28;92629;-71
2022/07/20 00:12:41;;;;;;;10.55;4.75;;;;;;;;;;4978815;28;94584;-71
2022/07/20 00:15:07;;;;;;;7.93;4.22;;;;;;;;;;4984402;28;96683;-73
2022/07/20 00:17:34;;;;;;;11.02;4.32;;;;;;;;;;4990559;28;93036;-73
2022/07/20 00:20:00;;;;;;;14.57;4.63;;;;;;;;;;4985250;28;94251;-72
2022/07/20 00:22:27;;;;;;;5.97;4.35;;;;;;;;;;4986438;28;93700;-72
2022/07/20 00:24:54;;;;;;;10.18;4.32;;;;;;;;;;4988366;28;93008;-73
2022/07/20 00:27:20;;;;;;;8.57;4.65;;;;;;;;;;4983951;28;93439;-73
2022/07/20 00:29:46;;;;;;;11.60;4.25;;;;;;;;;;4983236;28;92815;-72
2022/07/20 00:32:13;;;;;;;5.88;4.38;;;;;;;;;;4986191;28;93098;-73
2022/07/20 00:34:39;;;;;;;8.07;4.50;;;;;;;;;;4988055;28;93837;-72
2022/07/20 00:37:05;;;;;;;5.25;4.00;;;;;;;;;;4988820;28;93762;-72
2022/07/20 00:39:32;;;;;;;9.80;4.45;;;;;;;;;;4983361;28;95053;-72
2022/07/20 00:41:58;;;;;;;6.53;4.57;;;;;;;;;;4982044;28;93046;-72
2022/07/20 00:44:26;;;;;;;7.07;4.13;;;;;;;;;;4979141;28;94018;-73
2022/07/20 00:46:54;;;;;;;9.18;4.72;;;;;;;;;;4983254;28;94138;-72
2022/07/20 00:49:20;;;;;;;5.68;4.40;;;;;;;;;;4981945;28;93091;-73
2022/07/20 00:51:46;;;;;;;7.57;4.25;;;;;;;;;;4986786;28;94197;-72
2022/07/20 00:54:13;;;;;;;8.20;4.38;;;;;;;;;;4986647;28;93412;-72
2022/07/20 00:56:40;;;;;;;8.43;4.65;;;;;;;;;;4984114;28;93168;-73
2022/07/20 00:59:07;;;;;;;6.90;4.88;;;;;;;;;;4983062;28;94628;-73
2022/07/20 01:01:34;;;;;;;12.40;4.50;;;;;;;;;;4991720;28;93196;-72
2022/07/20 01:04:01;;;;;;;7.85;4.65;;;;;;;;;;4978859;28;94886;-73
2022/07/20 01:06:28;;;;;;;7.60;4.40;;;;;;;;;;4984300;28;95613;-72
2022/07/20 01:08:55;;;;;;;5.55;4.30;;;;;;;;;;4981420;28;94061;-72
2022/07/20 01:11:21;;;;;;;10.35;4.68;;;;;;;;;;4987451;28;93123;-73
2022/07/20 01:13:48;;;;;;;8.43;4.55;;;;;;;;;;4988572;28;93960;-72
2022/07/20 01:16:14;;;;;;;12.48;4.88;;;;;;;;;;4982038;28;93981;-72
2022/07/20 01:18:40;;;;;;;10.27;4.53;;;;;;;;;;4984130;27;93883;-72
2022/07/20 01:21:07;;;;;;;9.77;4.85;;;;;;;;;;4987327;28;92568;-72
2022/07/20 01:23:34;;;;;;;6.47;5.22;;;;;;;;;;4985675;28;92518;-72
2022/07/20 01:26:00;;;;;;;12.13;4.97;;;;;;;;;;4984168;28;94213;-72
2022/07/20 01:28:28;;;;;;;12.80;4.45;;;;;;;;;;4980369;28;95218;-72
2022/07/20 01:30:54;;;;;;;11.27;5.13;;;;;;;;;;4988999;28;95718;-72
2022/07/20 01:33:21;;;;;;;10.25;5.18;;;;;;;;;;4983186;28;94222;-72
2022/07/20 01:35:47;;;;;;;14.10;5.32;;;;;;;;;;4984318;28;92507;-72
2022/07/20 01:38:14;;;;;;;10.07;4.97;;;;;;;;;;4982057;28;93038;-73
2022/07/20 01:40:40;;;;;;;5.05;4.60;;;;;;;;;;4984099;28;94356;-73
2022/07/20 01:43:06;;;;;;;5.88;4.68;;;;;;;;;;4988945;28;94996;-72
2022/07/20 01:45:33;;;;;;;9.55;5.40;;;;;;;;;;4983548;28;93447;-72
2022/07/20 01:47:59;;;;;;;8.77;4.53;;;;;;;;;;4987294;28;93276;-72
2022/07/20 01:50:26;;;;;;;11.07;5.13;;;;;;;;;;4982701;28;93954;-73
2022/07/20 01:52:52;;;;;;;8.98;5.25;;;;;;;;;;4979430;28;96746;-72
2022/07/20 01:55:18;;;;;;;9.15;4.82;;;;;;;;;;4981132;28;93553;-73
2022/07/20 01:57:45;;;;;;;7.35;5.43;;;;;;;;;;4984065;28;95034;-73
2022/07/20 02:00:13;;;;;;;6.15;4.90;;;;;;;;;;4983912;28;94997;-73
2022/07/20 02:02:46;;;;;;;8.88;4.70;;;;;;;;;;4981707;28;92618;-72
2022/07/20 02:05:12;;;;;;;12.65;5.63;;;;;;;;;;4984832;28;95136;-72
2022/07/20 02:07:39;;;;;;;8.75;5.10;;;;;;;;;;4981779;28;92882;-72
2022/07/20 02:10:06;;;;;;;9.98;5.53;;;;;;;;;;4979882;28;93960;-72
2022/07/20 02:12:32;;;;;;;7.25;4.70;;;;;;;;;;4985110;28;94520;-72
2022/07/20 02:14:59;;;;;;;10.15;4.90;;;;;;;;;;4981446;28;93903;-72
2022/07/20 02:17:25;;;;;;;8.32;5.22;;;;;;;;;;4983318;28;96369;-72
2022/07/20 02:19:52;;;;;;;13.13;5.60;;;;;;;;;;4984198;28;94396;-72
2022/07/20 02:22:18;;;;;;;13.70;5.18;;;;;;;;;;4984047;28;93943;-72
2022/07/20 02:24:44;;;;;;;13.25;4.88;;;;;;;;;;4982443;28;93903;-72
2022/07/20 02:27:11;;;;;;;5.85;5.10;;;;;;;;;;4984985;28;93276;-72
2022/07/20 02:29:37;;;;;;;8.20;5.50;;;;;;;;;;4983091;28;93978;-72
2022/07/20 02:32:04;;;;;;;8.43;5.40;;;;;;;;;;4980715;28;95035;-72
2022/07/20 02:34:30;;;;;;;8.50;5.45;;;;;;;;;;4983321;28;93418;-72
2022/07/20 02:36:57;;;;;;;7.43;5.68;;;;;;;;;;4982952;28;94881;-73
2022/07/20 02:39:23;;;;;;;8.38;5.63;;;;;;;;;;4982534;28;94063;-72
2022/07/20 02:41:50;;;;;;;8.95;6.05;;;;;;;;;;4976082;28;96524;-72
2022/07/20 02:44:16;;;;;;;7.88;5.53;;;;;;;;;;4983502;28;95400;-72
2022/07/20 02:46:43;;;;;;;11.52;5.53;;;;;;;;;;4980967;28;94131;-72
2022/07/20 02:49:09;;;;;;;10.55;6.10;;;;;;;;;;4986361;28;93376;-73
2022/07/20 02:51:35;;;;;;;9.32;5.35;;;;;;;;;;4983053;28;94157;-72
2022/07/20 02:54:02;;;;;;;13.98;5.50;;;;;;;;;;4988818;28;93986;-72
2022/07/20 02:56:28;;;;;;;9.77;5.45;;;;;;;;;;4989091;28;93016;-73
2022/07/20 02:58:55;;;;;;;10.98;5.30;;;;;;;;;;4990060;28;94898;-72
2022/07/20 03:01:21;;;;;;;5.78;4.97;;;;;;;;;;4983214;28;93149;-73
2022/07/20 03:03:48;;;;;;;12.82;5.38;;;;;;;;;;4985643;28;95042;-72
2022/07/20 03:06:16;;;;;;;10.57;5.03;;;;;;;;;;4984041;28;95521;-72
2022/07/20 03:08:42;;;;;;;10.52;5.20;;;;;;;;;;4985392;28;93515;-72
2022/07/20 03:11:09;;;;;;;5.68;5.03;;;;;;;;;;4991917;28;93924;-72
2022/07/20 03:13:35;;;;;;;6.55;4.95;;;;;;;;;;4984809;28;93769;-72
2022/07/20 03:16:01;;;;;;;5.22;4.65;;;;;;;;;;4988827;28;94187;-72
2022/07/20 03:18:28;;;;;;;13.70;4.65;;;;;;;;;;4984134;28;94517;-72
2022/07/20 03:20:54;;;;;;;8.00;4.47;;;;;;;;;;4990205;28;92535;-72
2022/07/20 03:23:20;;;;;;;7.68;4.63;;;;;;;;;;4990314;28;93359;-72
2022/07/20 03:25:47;;;;;;;7.97;4.55;;;;;;;;;;4984391;28;93319;-72
2022/07/20 03:28:13;;;;;;;7.88;4.60;;;;;;;;;;4985263;28;92660;-73
2022/07/20 03:30:39;;;;;;;10.02;4.53;;;;;;;;;;4984172;28;96997;-72
2022/07/20 03:33:06;;;;;;;6.93;4.00;;;;;;;;;;4990015;28;93194;-72
2022/07/20 03:35:32;;;;;;;12.63;4.80;;;;;;;;;;4985519;28;92892;-72
2022/07/20 03:37:59;;;;;;;6.75;4.72;;;;;;;;;;4985988;28;94522;-72
2022/07/20 03:40:25;;;;;;;8.15;5.45;;;;;;;;;;4985501;28;92551;-73
2022/07/20 03:42:51;;;;;;;14.68;5.10;;;;;;;;;;4984715;28;94602;-72
2022/07/20 03:45:18;;;;;;;17.33;6.18;;;;;;;;;;4988336;28;94106;-72
2022/07/20 03:47:52;;;;;;;9.10;5.70;;;;;;;;;;4986012;28;92214;-72
2022/07/20 03:50:19;;;;;;;8.55;6.10;;;;;;;;;;4980480;28;93061;-72
2022/07/20 03:52:45;;;;;;;16.50;6.22;;;;;;;;;;4983400;28;93443;-72
2022/07/20 03:55:11;;;;;;;15.38;5.50;;;;;;;;;;4984801;28;96967;-72
2022/07/20 03:57:38;;;;;;;13.05;5.95;;;;;;;;;;4980309;28;94097;-72
2022/07/20 04:00:05;;;;;;;15.02;5.75;;;;;;;;;;4986496;28;92539;-72
2022/07/20 04:02:31;;;;;;;14.50;5.97;;;;;;;;;;4981313;28;95045;-72
2022/07/20 04:04:58;;;;;;;10.25;5.55;;;;;;;;;;4983207;28;94193;-73
2022/07/20 04:07:24;;;;;;;16.45;5.78;;;;;;;;;;4982376;28;93943;-72
2022/07/20 04:09:51;;;;;;;9.95;5.88;;;;;;;;;;4990602;27;93666;-72
2022/07/20 04:12:19;;;;;;;18.85;6.15;;;;;;;;;;4989425;28;92490;-72
2022/07/20 04:14:46;;;;;;;11.43;6.15;;;;;;;;;;4993191;28;93837;-72
2022/07/20 04:17:13;;;;;;;10.20;6.53;;;;;;;;;;4987967;28;93501;-74
2022/07/20 04:19:39;;;;;;;13.82;6.70;;;;;;;;;;4979947;28;95601;-72
2022/07/20 04:22:05;;;;;;;9.10;6.28;;;;;;;;;;4985362;28;95595;-72
2022/07/20 04:24:32;;;;;;;8.10;6.50;;;;;;;;;;4988499;28;93398;-72
2022/07/20 04:26:58;;;;;;;13.43;7.43;;;;;;;;;;4983437;28;94593;-72
2022/07/20 04:29:25;;;;;;;8.52;5.93;;;;;;;;;;4982774;28;94462;-73
2022/07/20 04:31:51;;;;;;;13.00;6.68;;;;;;;;;;4982918;28;94227;-72
2022/07/20 04:34:18;;;;;;;16.98;7.03;;;;;;;;;;4981662;28;94541;-73
2022/07/20 04:36:44;;;;;;;21.85;8.90;;;;;;;;;;4990680;28;93838;-72
2022/07/20 04:39:11;;;;;;;19.60;10.27;;;;;;;;;;4985369;28;93146;-72
2022/07/20 04:41:37;;;;;;;20.48;10.05;;;;;;;;;;4982774;28;92883;-72
2022/07/20 04:44:04;;;;;;;17.23;10.02;;;;;;;;;;4985104;28;96776;-73
2022/07/20 04:46:30;;;;;;;24.38;10.70;;;;;;;;;;4982502;28;92963;-72
2022/07/20 04:48:57;;;;;;;21.25;10.30;;;;;;;;;;4979426;27;94027;-72
2022/07/20 04:51:23;;;;;;;18.92;10.85;;;;;;;;;;4983735;28;94354;-72
2022/07/20 04:53:49;;;;;;;24.80;12.80;;;;;;;;;;4982920;27;94228;-72
2022/07/20 04:56:18;;;;;;;24.17;13.38;;;;;;;;;;4986692;28;92635;-73
2022/07/20 04:58:47;;;;;;;23.38;14.23;;;;;;;;;;4986582;28;93103;-72
2022/07/20 05:01:14;;;;;;;25.40;14.80;;;;;;;;;;4980765;28;92320;-71
2022/07/20 05:03:42;;;;;;;25.02;15.48;;;;;;;;;;4992838;28;94134;-72
2022/07/20 05:06:08;;;;;;;29.33;15.32;;;;;;;;;;4988828;28;93174;-73
2022/07/20 05:08:36;;;;;;;27.70;15.20;;;;;;;;;;4988154;28;95363;-73
2022/07/20 05:11:03;;;;;;;30.33;14.15;;;;;;;;;;4992307;28;93356;-76
2022/07/20 05:13:36;;;;;;;35.92;16.70;;;;;;;;;;4984504;28;93379;-76
2022/07/20 05:16:03;;;;;;;35.65;18.38;;;;;;;;;;4981081;28;94404;-76
2022/07/20 05:18:30;;;;;;;34.97;17.45;;;;;;;;;;4974149;28;94487;-75
2022/07/20 05:20:56;;;;;;;34.72;18.13;;;;;;;;;;4990221;28;93240;-75
2022/07/20 05:23:23;;;;;;;35.72;18.33;;;;;;;;;;4989465;28;93582;-75
2022/07/20 05:25:49;;;;;;;31.77;19.85;;;;;;;;;;4994854;28;91761;-75
2022/07/20 05:28:18;;;;;;;30.98;18.95;;;;;;;;;;4990625;28;95190;-76
2022/07/20 05:30:48;;;;;;;39.47;19.23;;;;;;;;;;4994291;28;94195;-76
2022/07/20 05:33:14;;;;;;;28.50;19.80;;;;;;;;;;4990823;28;95198;-77
2022/07/20 05:35:41;;;;;;;30.83;19.00;;;;;;;;;;4980771;28;96400;-76
2022/07/20 05:38:07;;;;;;;29.50;20.05;;;;;;;;;;4991387;28;93368;-78
2022/07/20 05:40:34;;;;;;;31.25;20.00;;;;;;;;;;4981635;28;92966;-77
2022/07/20 05:43:00;;;;;;;34.38;21.63;;;;;;;;;;4990035;27;94354;-77
2022/07/20 05:45:27;;;;;;;30.98;20.52;;;;;;;;;;4987662;28;95199;-77
2022/07/20 05:47:53;;;;;;;34.58;21.30;;;;;;;;;;4980123;28;93047;-77
2022/07/20 05:50:19;;;;;;;41.10;21.60;;;;;;;;;;4986519;28;91921;-76
2022/07/20 05:52:46;;;;;;;40.17;21.73;;;;;;;;;;4985433;28;93155;-78
2022/07/20 05:55:12;;;;;;;32.13;20.80;;;;;;;;;;4987377;28;93965;-78
2022/07/20 05:57:39;;;;;;;33.78;22.38;;;;;;;;;;4987781;28;95580;-77
2022/07/20 06:00:06;;;;;;;42.20;22.08;;;;;;;;;;4993728;28;92503;-78
2022/07/20 06:02:32;;;;;;;38.17;21.77;;;;;;;;;;4998089;28;94170;-76
2022/07/20 06:04:59;;;;;;;33.58;22.08;;;;;;;;;;4993374;28;92495;-76
2022/07/20 06:07:25;;;;;;;35.67;22.02;;;;;;;;;;5006204;28;92864;-77
2022/07/20 06:09:51;;;;;;;41.00;23.13;;;;;;;;;;5004182;28;94077;-76
2022/07/20 06:12:18;;;;;;;32.88;22.23;;;;;;;;;;4989291;28;92606;-76
2022/07/20 06:14:44;;;;;;;34.97;21.55;;;;;;;;;;4990726;28;94030;-76
2022/07/20 06:17:11;;;;;;;33.13;20.70;;;;;;;;;;5000062;28;94545;-76
2022/07/20 06:19:38;;;;;;;36.92;21.45;;;;;;;;;;4995202;28;94566;-75
2022/07/20 06:22:04;;;;;;;31.83;20.23;;;;;;;;;;4991321;28;96137;-76
2022/07/20 06:24:31;;;;;;;29.33;20.27;;;;;;;;;;4987768;28;93524;-75
2022/07/20 06:26:57;;;;;;;34.83;19.45;;;;;;;;;;4985009;28;94472;-75
2022/07/20 06:29:24;;;;;;;34.55;19.60;;;;;;;;;;4981477;28;94636;-76
2022/07/20 06:31:51;;;;;;;29.25;18.70;;;;;;;;;;4985530;27;93285;-76
2022/07/20 06:34:37;;;;;;;37.20;20.73;;;;;;;;;;4983008;28;93282;-72
2022/07/20 06:37:04;;;;;;;36.10;19.15;;;;;;;;;;4986618;28;93196;-73
2022/07/20 06:39:30;;;;;;;33.28;18.42;;;;;;;;;;4988594;28;91879;-74
2022/07/20 06:41:56;;;;;;;32.47;18.00;;;;;;;;;;4989812;28;93668;-72
2022/07/20 06:44:25;;;;;;;32.88;17.50;;;;;;;;;;4998420;28;92505;-72
2022/07/20 06:46:51;;;;;;;33.22;16.38;;;;;;;;;;5016580;28;94963;-72
2022/07/20 06:49:24;;;;;;;23.83;15.55;;;;;;;;;;5013050;28;93081;-72
2022/07/20 06:51:51;;;;;;;26.67;14.57;;;;;;;;;;4986356;28;92541;-72
2022/07/20 06:54:17;;;;;;;21.90;14.88;;;;;;;;;;4995237;28;93230;-72
2022/07/20 06:56:44;;;;;;;25.27;15.05;;;;;;;;;;4988616;28;93351;-72
2022/07/20 06:59:11;;;;;;;32.15;16.60;;;;;;;;;;4979932;28;92599;-72
2022/07/20 07:01:37;;;;;;;29.13;17.40;;;;;;;;;;4987294;28;93466;-72
2022/07/20 07:04:04;;;;;;;29.70;17.10;;;;;;;;;;4996318;28;92547;-72
2022/07/20 07:06:33;;;;;;;27.70;18.05;;;;;;;;;;4995467;28;92543;-72
2022/07/20 07:08:59;;;;;;;30.88;18.85;;;;;;;;;;4983591;28;93344;-72
2022/07/20 07:11:26;;;;;;;28.25;18.77;;;;;;;;;;4985060;28;94975;-72
2022/07/20 07:13:52;;;;;;;28.10;18.50;;;;;;;;;;4996154;27;95321;-72
2022/07/20 07:16:19;;;;;;;28.83;19.02;;;;;;;;;;4987838;28;93350;-72
2022/07/20 07:18:45;;;;;;;34.67;18.10;;;;;;;;;;4995906;28;92765;-72
2022/07/20 07:21:12;;;;;;;28.33;17.83;;;;;;;;;;4995136;28;93737;-72
2022/07/20 07:23:39;;;;;;;26.15;16.35;;;;;;;;;;4994757;28;93098;-72
2022/07/20 07:26:05;;;;;;;21.90;15.07;;;;;;;;;;4988168;28;92528;-72
2022/07/20 07:28:31;;;;;;;24.42;14.25;;;;;;;;;;4988673;27;93030;-73
2022/07/20 07:30:58;;;;;;;23.80;13.30;;;;;;;;;;4999095;27;93153;-72
2022/07/20 07:33:25;;;;;;;23.33;11.38;;;;;;;;;;4996221;28;92995;-71
2022/07/20 07:35:52;;;;;;;30.38;11.73;;;;;;;;;;4981684;27;95750;-72
2022/07/20 07:38:18;;;;;;;22.98;12.13;;;;;;;;;;4987841;28;93026;-72
2022/07/20 07:40:45;;;;;;;21.25;10.90;;;;;;;;;;4996259;28;93143;-72
2022/07/20 07:43:11;;;;;;;16.63;10.45;;;;;;;;;;4987558;28;93345;-73
2022/07/20 07:45:38;;;;;;;16.23;10.45;;;;;;;;;;4995595;28;92476;-73
2022/07/20 07:48:09;;;;;;;17.05;9.77;;;;;;;;;;4991093;28;93799;-71
2022/07/20 07:50:39;;;;;;;17.88;10.13;;;;;;;;;;4985554;28;93480;-72
2022/07/20 07:53:07;;;;;;;15.02;9.40;;;;;;;;;;4993124;28;92163;-71
2022/07/20 07:55:40;;;;;;;20.52;10.23;;;;;;;;;;4996520;28;93185;-71
2022/07/20 07:58:07;;;;;;;18.73;9.70;;;;;;;;;;5003888;28;93351;-71
2022/07/20 08:00:35;;;;;;;18.50;9.98;;;;;;;;;;4986370;28;94883;-72
2022/07/20 08:03:05;;;;;;;22.40;10.48;;;;;;;;;;4990882;28;94235;-72
2022/07/20 08:05:32;;;;;;;22.63;9.95;;;;;;;;;;4989672;28;92863;-72
2022/07/20 08:08:04;;;;;;;15.95;9.05;;;;;;;;;;4995533;28;94070;-72
2022/07/20 08:10:30;;;;;;;18.88;9.20;;;;;;;;;;4994285;28;92665;-72
2022/07/20 08:13:00;;;;;;;19.98;9.23;;;;;;;;;;5014285;28;92466;-73
2022/07/20 08:15:26;;;;;;;18.48;9.05;;;;;;;;;;5012944;28;92677;-72
2022/07/20 08:17:53;;;;;;;16.13;9.15;;;;;;;;;;5007260;28;91751;-72
2022/07/20 08:20:21;;;;;;;21.20;10.20;;;;;;;;;;5006124;28;93101;-72
2022/07/20 08:22:48;;;;;;;21.45;10.00;;;;;;;;;;5013597;28;94200;-72
2022/07/20 08:25:14;;;;;;;24.92;10.00;;;;;;;;;;5004067;28;94876;-73
2022/07/20 08:27:41;;;;;;;21.48;10.48;;;;;;;;;;5014210;28;96558;-72
2022/07/20 08:30:07;;;;;;;21.63;10.55;;;;;;;;;;5014957;28;93269;-74
2022/07/20 08:32:54;;;;;;;21.85;9.50;;;;;;;;;;5003652;28;92890;-72
2022/07/20 08:35:20;;;;;;;18.80;9.38;;;;;;;;;;5013555;28;93974;-72
2022/07/20 08:37:47;;;;;;;18.48;8.93;;;;;;;;;;5013200;28;92473;-72
2022/07/20 08:40:13;;;;;;;20.20;10.18;;;;;;;;;;5008720;28;94116;-73
2022/07/20 08:42:40;;;;;;;17.48;9.35;;;;;;;;;;5014156;28;93269;-72
2022/07/20 08:45:08;;;;;;;14.77;8.32;;;;;;;;;;5011171;28;92492;-72
2022/07/20 08:47:37;;;;;;;18.38;8.95;;;;;;;;;;4994559;28;94060;-72
2022/07/20 08:50:04;;;;;;;15.60;8.40;;;;;;;;;;5010400;28;96688;-72
2022/07/20 08:52:31;;;;;;;16.13;8.23;;;;;;;;;;5004092;28;92717;-71
2022/07/20 08:54:57;;;;;;;20.13;7.53;;;;;;;;;;5013197;28;94129;-72
2022/07/20 08:57:25;;;;;;;19.45;8.02;;;;;;;;;;5018093;28;93963;-71
2022/07/20 08:59:51;;;;;;;13.15;7.30;;;;;;;;;;5013814;28;95458;-72
2022/07/20 09:02:17;;;;;;;10.73;6.75;;;;;;;;;;5007804;28;93856;-72
2022/07/20 09:04:51;;;;;;;13.52;7.15;;;;;;;;;;5014177;28;92431;-72
2022/07/20 09:07:34;;;;;;;11.52;6.88;;;;;;;;;;5010127;28;92890;-72
2022/07/20 09:10:01;;;;;;;14.95;7.40;;;;;;;;;;5011171;28;94107;-72
2022/07/20 09:12:27;;;;;;;19.65;6.70;;;;;;;;;;5003565;28;92542;-72
2022/07/20 09:14:54;;;;;;;14.55;7.55;;;;;;;;;;5002518;28;94874;-72
2022/07/20 09:17:22;;;;;;;13.20;6.53;;;;;;;;;;5001525;28;94211;-72
2022/07/20 09:20:01;;;;;;;11.85;7.40;;;;;;;;;;5013928;28;92543;-72
2022/07/20 09:22:28;;;;;;;10.23;7.50;;;;;;;;;;5004943;28;94050;-72
2022/07/20 09:25:05;;;;;;;15.95;7.05;;;;;;;;;;5011370;28;92459;-72
2022/07/20 09:27:34;;;;;;;16.70;7.22;;;;;;;;;;5015011;28;94249;-70
2022/07/20 09:30:11;;;;;;;7.38;6.18;;;;;;;;;;5005032;28;93302;-72
2022/07/20 09:32:55;;;;;;;12.90;7.20;;;;;;;;;;5014118;28;91896;-72
2022/07/20 09:35:28;;;;;;;9.77;6.25;;;;;;;;;;5009912;28;93312;-71
2022/07/20 09:37:56;;;;;;;10.07;6.40;;;;;;;;;;5010600;28;94080;-71
2022/07/20 09:40:24;;;;;;;17.25;7.35;;;;;;;;;;5012230;28;95314;-72
2022/07/20 09:42:50;;;;;;;17.10;7.40;;;;;;;;;;5008679;28;96495;-72
2022/07/20 09:45:24;;;;;;;14.88;6.50;;;;;;;;;;5013945;28;92543;-72
2022/07/20 09:48:11;;;;;;;10.05;6.05;;;;;;;;;;5014895;28;94660;-72
2022/07/20 09:50:44;;;;;;;12.10;6.57;;;;;;;;;;5005002;28;93559;-71
2022/07/20 09:53:11;;;;;;;12.45;6.60;;;;;;;;;;5013930;28;92532;-71
2022/07/20 09:55:38;;;;;;;10.50;7.03;;;;;;;;;;5002914;28;94446;-72
2022/07/20 09:58:06;;;;;;;8.93;6.50;;;;;;;;;;4980025;28;93314;-71
2022/07/20 10:00:33;;;;;;;11.43;6.55;;;;;;;;;;4988715;28;92441;-71
2022/07/20 10:03:00;;;;;;;9.73;6.45;;;;;;;;;;4988680;28;94128;-71
2022/07/20 10:05:28;;;;;;;12.82;6.28;;;;;;;;;;4985171;28;94897;-71
2022/07/20 10:07:55;;;;;;;7.07;6.15;;;;;;;;;;4989091;28;96637;-70
2022/07/20 10:10:21;;;;;;;11.57;6.82;;;;;;;;;;5005326;28;93358;-72
2022/07/20 10:12:47;;;;;;;6.95;6.15;;;;;;;;;;5013287;28;92776;-71
2022/07/20 10:15:23;;;;;;;10.80;6.82;;;;;;;;;;5002121;28;92923;-71
2022/07/20 10:17:50;;;;;;;16.30;6.25;;;;;;;;;;5007511;28;93606;-71
2022/07/20 10:20:33;;;;;;;14.50;5.00;;;;;;;;;;5010018;28;92568;-71
2022/07/20 10:23:14;;;;;;;20.45;5.60;;;;;;;;;;4990685;28;93233;-71
2022/07/20 10:25:41;;;;;;;10.05;5.10;;;;;;;;;;5002913;28;93557;-71
2022/07/20 10:28:23;;;;;;;9.50;4.70;;;;;;;;;;5005075;28;92965;-71
2022/07/20 10:30:56;;;;;;;11.25;5.03;;;;;;;;;;5009975;28;96289;-71
2022/07/20 10:33:23;;;;;;;6.20;4.25;;;;;;;;;;5012235;28;92531;-71
2022/07/20 10:35:51;;;;;;;8.43;4.47;;;;;;;;;;5004805;28;94991;-71
2022/07/20 10:38:19;;;;;;;5.70;4.55;;;;;;;;;;5012845;28;93551;-71
2022/07/20 10:44:04;;;;;;;13.13;4.60;;;;;;;;;;5013570;28;93169;-71
2022/07/20 10:46:33;;;;;;;7.45;4.45;;;;;;;;;;5012797;28;93389;-70
2022/07/20 10:48:59;;;;;;;8.35;4.20;;;;;;;;;;5010289;28;91768;-70
2022/07/20 10:51:26;;;;;;;8.27;3.40;;;;;;;;;;5012810;28;93369;-71
2022/07/20 10:53:52;;;;;;;14.00;3.20;;;;;;;;;;5012532;28;92559;-70
2022/07/20 10:56:29;;;;;;;6.65;3.88;;;;;;;;;;5003848;28;95452;-71
2022/07/20 10:59:00;;;;;;;6.85;3.85;;;;;;;;;;5012037;28;93319;-71
2022/07/20 11:01:26;;;;;;;6.55;4.00;;;;;;;;;;5003854;28;92443;-71
2022/07/20 11:03:53;;;;;;;4.93;3.63;;;;;;;;;;5005355;28;93137;-71
2022/07/20 11:06:21;;;;;;;11.65;3.63;;;;;;;;;;5012621;28;93567;-71
2022/07/20 11:08:54;;;;;;;7.68;4.00;;;;;;;;;;5004196;28;92671;-72
2022/07/20 11:11:23;;;;;;;9.50;4.53;;;;;;;;;;5009194;28;93262;-72
2022/07/20 11:13:50;;;;;;;6.78;4.10;;;;;;;;;;5011246;28;92498;-71
2022/07/20 11:16:18;;;;;;;12.82;5.10;;;;;;;;;;5016289;28;92502;-72
2022/07/20 11:18:45;;;;;;;10.70;4.65;;;;;;;;;;5009007;28;93008;-71
2022/07/20 11:21:12;;;;;;;14.85;5.18;;;;;;;;;;5013886;28;95491;-71
2022/07/20 11:23:45;;;;;;;10.27;3.58;;;;;;;;;;5013351;28;96116;-72
2022/07/20 11:26:13;;;;;;;8.82;4.40;;;;;;;;;;5011651;28;94458;-71
2022/07/20 11:28:44;;;;;;;5.65;3.88;;;;;;;;;;5007403;28;92563;-71
2022/07/20 11:31:10;;;;;;;6.88;4.20;;;;;;;;;;5010749;28;93152;-71
2022/07/20 11:33:41;;;;;;;11.32;3.53;;;;;;;;;;4996776;28;93431;-70
2022/07/20 11:36:09;;;;;;;5.85;3.53;;;;;;;;;;4986727;28;93931;-71
2022/07/20 11:38:41;;;;;;;4.60;3.55;;;;;;;;;;4986555;28;92910;-71
2022/07/20 11:41:07;;;;;;;;;;;;;;;;;;4987209;28;93209;-71
2022/07/20 11:43:45;;;;;;;6.00;3.83;;;;;;;;;;4984018;28;123028;-71
2022/07/20 11:46:24;;;;;;;9.90;3.78;;;;;;;;;;4981131;28;96090;-71
2022/07/20 11:49:00;;;;;;;5.78;3.75;;;;;;;;;;4979617;28;93528;-71
2022/07/20 11:51:53;;;;;;;9.55;3.72;;;;;;;;;;4971951;28;95054;-71
2022/07/20 11:54:23;;;;;;;7.38;4.00;;;;;;;;;;4987284;28;93318;-70
2022/07/20 11:56:51;;;;;;;3.67;3.33;;;;;;;;;;4988284;28;93459;-71
2022/07/20 11:59:19;;;;;;;4.35;3.03;;;;;;;;;;4984150;28;93135;-71
2022/07/20 12:01:47;;;;;;;3.67;3.28;;;;;;;;;;4980133;28;92606;-71
2022/07/20 12:04:15;;;;;;;4.43;3.83;;;;;;;;;;4982914;28;94162;-71
2022/07/20 12:06:41;;;;;;;3.70;3.30;;;;;;;;;;4987344;28;94598;-71
2022/07/20 12:09:12;;;;;;;3.40;3.15;;;;;;;;;;4978664;28;94402;-72
2022/07/20 12:11:54;;;;;;;8.38;3.30;;;;;;;;;;4988313;28;95225;-72
2022/07/20 12:14:26;;;;;;;4.20;3.03;;;;;;;;;;5003401;28;93970;-72
2022/07/20 12:17:20;;;;;;;5.65;3.80;;;;;;;;;;4983771;28;94052;-72
2022/07/20 12:19:51;;;;;;;12.40;3.90;;;;;;;;;;4985801;28;94093;-72
2022/07/20 12:22:19;;;;;;;3.95;3.42;;;;;;;;;;4984928;28;94639;-72
2022/07/20 12:25:02;;;;;;;3.97;3.50;;;;;;;;;;4992727;28;94284;-72
2022/07/20 12:27:30;;;;;;;4.97;4.07;;;;;;;;;;5002381;28;93196;-72
2022/07/20 12:29:57;;;;;;;7.70;3.92;;;;;;;;;;5006197;28;93110;-72
2022/07/20 12:32:28;;;;;;;6.60;4.30;;;;;;;;;;4987945;28;93988;-72
2022/07/20 12:34:55;;;;;;;6.22;3.88;;;;;;;;;;4988875;28;94656;-71
2022/07/20 12:37:22;;;;;;;7.00;3.83;;;;;;;;;;4989968;28;96210;-72
2022/07/20 12:39:53;;;;;;;8.68;3.92;;;;;;;;;;4989208;28;95448;-72
2022/07/20 12:42:22;;;;;;;3.55;3.15;;;;;;;;;;4991749;28;92568;-72
2022/07/20 12:45:04;;;;;;;10.05;3.65;;;;;;;;;;4987415;28;94098;-72
2022/07/20 12:47:31;;;;;;;8.20;3.50;;;;;;;;;;4992255;28;94508;-72
2022/07/20 12:50:18;;;;;;;10.10;3.80;;;;;;;;;;4984868;28;94805;-72
2022/07/20 12:52:44;;;;;;;5.68;3.90;;;;;;;;;;4990812;28;94735;-72
2022/07/20 12:55:11;;;;;;;5.80;3.40;;;;;;;;;;4988723;28;93467;-72
2022/07/20 12:57:37;;;;;;;7.32;3.35;;;;;;;;;;4984599;28;95003;-72
2022/07/20 13:00:05;;;;;;;4.25;3.28;;;;;;;;;;4987995;28;94409;-72
2022/07/20 13:02:32;;;;;;;6.07;3.40;;;;;;;;;;4991767;28;95096;-72
2022/07/20 13:05:02;;;;;;;6.70;4.03;;;;;;;;;;4985485;28;95194;-72
2022/07/20 13:07:28;;;;;;;4.32;3.17;;;;;;;;;;4987410;28;95016;-72
2022/07/20 13:09:55;;;;;;;5.68;2.90;;;;;;;;;;4984828;28;93573;-71
2022/07/20 13:12:25;;;;;;;3.60;3.30;;;;;;;;;;4985288;28;93157;-71
2022/07/20 13:14:52;;;;;;;3.30;2.92;;;;;;;;;;4986669;28;93277;-72
2022/07/20 13:17:39;;;;;;;3.50;3.20;;;;;;;;;;4989922;28;93341;-71
2022/07/20 13:20:06;;;;;;;5.40;3.33;;;;;;;;;;4988827;28;93294;-72
2022/07/20 13:22:32;;;;;;;4.10;3.55;;;;;;;;;;4990674;28;93398;-72
2022/07/20 13:24:59;;;;;;;7.22;3.67;;;;;;;;;;4988265;28;93329;-72
2022/07/20 13:27:25;;;;;;;5.40;3.75;;;;;;;;;;4986070;28;96283;-72
2022/07/20 13:29:51;;;;;;;6.03;3.78;;;;;;;;;;4988670;28;94016;-72
2022/07/20 13:32:18;;;;;;;12.32;4.43;;;;;;;;;;5003147;28;93226;-72
2022/07/20 13:34:44;;;;;;;4.40;4.00;;;;;;;;;;4981829;28;93655;-72
2022/07/20 13:37:11;;;;;;;4.32;3.97;;;;;;;;;;4982185;28;93743;-71
2022/07/20 13:39:37;;;;;;;5.80;3.83;;;;;;;;;;4981318;28;94039;-72
2022/07/20 13:42:09;;;;;;;8.73;4.53;;;;;;;;;;4982178;28;94172;-71
2022/07/20 13:44:37;;;;;;;7.65;4.70;;;;;;;;;;4989372;28;93265;-71
2022/07/20 13:47:04;;;;;;;10.80;4.70;;;;;;;;;;4986306;28;94966;-72
2022/07/20 13:49:31;;;;;;;8.48;4.82;;;;;;;;;;4983147;28;92975;-71
2022/07/20 13:51:57;;;;;;;9.23;5.45;;;;;;;;;;4989369;28;95937;-71
2022/07/20 13:54:43;;;;;;;6.28;5.18;;;;;;;;;;4982578;28;93954;-71
2022/07/20 13:57:10;;;;;;;8.63;5.20;;;;;;;;;;4981874;28;94173;-71
2022/07/20 13:59:36;;;;;;;9.43;5.53;;;;;;;;;;5000361;28;93116;-71
2022/07/20 14:02:02;;;;;;;5.43;4.80;;;;;;;;;;4989783;28;94077;-71
2022/07/20 14:04:29;;;;;;;14.00;4.97;;;;;;;;;;4985234;28;94194;-71
2022/07/20 14:06:55;;;;;;;8.68;4.80;;;;;;;;;;4992902;28;92955;-71
2022/07/20 14:09:22;;;;;;;6.68;4.35;;;;;;;;;;4991369;28;93475;-71
2022/07/20 14:11:48;;;;;;;5.07;4.55;;;;;;;;;;4985557;28;94232;-72
2022/07/20 14:14:14;;;;;;;10.18;4.47;;;;;;;;;;4989887;28;94461;-72
2022/07/20 14:16:42;;;;;;;8.43;4.45;;;;;;;;;;4984743;28;96510;-71
2022/07/20 14:19:08;;;;;;;7.18;4.80;;;;;;;;;;4986091;27;96046;-71
2022/07/20 14:21:35;;;;;;;8.13;4.55;;;;;;;;;;4983700;28;92575;-72
2022/07/20 14:24:02;;;;;;;9.75;5.30;;;;;;;;;;4980717;28;92567;-71
2022/07/20 14:26:28;;;;;;;9.23;5.03;;;;;;;;;;4989761;28;92782;-72
2022/07/20 14:28:54;;;;;;;8.02;5.25;;;;;;;;;;4991082;28;94989;-71
2022/07/20 14:31:21;;;;;;;7.85;5.72;;;;;;;;;;4987767;28;93121;-71
2022/07/20 14:33:48;;;;;;;9.85;5.88;;;;;;;;;;4986626;28;95701;-71
2022/07/20 14:36:14;;;;;;;8.23;5.63;;;;;;;;;;4981259;28;94204;-72
2022/07/20 14:38:40;;;;;;;9.02;5.68;;;;;;;;;;4982100;28;93068;-71
2022/07/20 14:41:07;;;;;;;6.60;5.25;;;;;;;;;;4978427;28;96527;-72
2022/07/20 14:43:36;;;;;;;6.45;5.15;;;;;;;;;;4980412;28;93438;-72